Time;durP1;ratioP1;P1;durP2;ratioP2;P2;SDS_P1;SDS_P2;PMS_P1;PMS_P2;Temp;Humidity;BMP_temperature;BMP_pressure;BME280_temperature;BME280_humidity;BME280_pressure;Samples;Min_cycle;Max_cycle;Signal;HPM_P1;HPM_P2
2023/06/08 00:02:23;;;;;;;6.93;3.47;;;;;;;22.59;44.41;101767.06;5012079;28;20072;-68
2023/06/08 00:04:55;;;;;;;7.82;3.92;;;;;;;22.56;44.42;101759.34;5010925;28;20030;-68
2023/06/08 00:07:21;;;;;;;7.15;3.75;;;;;;;22.59;44.44;101756.44;5011292;28;20115;-69
2023/06/08 00:09:47;;;;;;;6.88;3.60;;;;;;;22.58;44.51;101760.03;5011184;28;20398;-68
2023/06/08 00:12:13;;;;;;;7.75;3.45;;;;;;;22.59;44.41;101756.44;5011411;28;20529;-68
2023/06/08 00:14:39;;;;;;;6.80;3.47;;;;;;;22.56;44.59;101754.88;5010898;28;20050;-68
2023/06/08 00:17:05;;;;;;;7.82;3.63;;;;;;;22.58;44.21;101752.06;5011495;28;20044;-69
2023/06/08 00:19:31;;;;;;;6.80;3.80;;;;;;;22.58;44.61;101754.72;5011733;28;20043;-68
2023/06/08 00:21:59;;;;;;;8.95;4.07;;;;;;;22.58;44.18;101757.38;5011565;28;20030;-68
2023/06/08 00:24:25;;;;;;;6.88;3.65;;;;;;;22.57;44.17;101761.88;5009963;28;20037;-67
2023/06/08 00:26:50;;;;;;;7.05;3.70;;;;;;;22.55;44.19;101761.13;5011269;28;20113;-66
2023/06/08 00:29:15;;;;;;;7.40;3.63;;;;;;;22.57;44.05;101751.25;5011100;28;20050;-66
2023/06/08 00:31:41;;;;;;;7.03;3.63;;;;;;;22.57;44.13;101750.38;5010957;28;20064;-69
2023/06/08 00:34:06;;;;;;;7.78;3.67;;;;;;;22.57;44.29;101750.38;5010968;28;20045;-67
2023/06/08 00:36:31;;;;;;;6.82;3.85;;;;;;;22.55;44.05;101744.38;5011006;28;20402;-67
2023/06/08 00:38:57;;;;;;;5.80;3.60;;;;;;;22.54;43.95;101755.94;5011297;28;20438;-67
2023/06/08 00:41:22;;;;;;;7.82;3.60;;;;;;;22.55;44.23;101750.50;5010826;28;20269;-67
2023/06/08 00:43:47;;;;;;;7.07;3.83;;;;;;;22.55;44.10;101749.69;5010971;28;20041;-68
2023/06/08 00:46:16;;;;;;;5.82;3.42;;;;;;;22.54;43.93;101745.34;5010792;28;20263;-66
2023/06/08 00:48:42;;;;;;;6.75;3.58;;;;;;;22.56;43.97;101746.06;5011394;28;20038;-66
2023/06/08 00:51:08;;;;;;;7.25;3.78;;;;;;;22.53;43.99;101743.66;5010462;28;20034;-67
2023/06/08 00:53:36;;;;;;;6.70;3.60;;;;;;;22.54;44.10;101738.22;5008791;28;20120;-67
2023/06/08 00:56:02;;;;;;;6.43;3.55;;;;;;;22.53;43.99;101741.84;5010520;28;20481;-68
2023/06/08 00:58:28;;;;;;;6.88;3.92;;;;;;;22.53;44.11;101733.88;5011735;28;20124;-66
2023/06/08 01:00:59;;;;;;;5.82;3.45;;;;;;;22.52;44.16;101737.50;5011136;28;20175;-67
2023/06/08 01:03:33;;;;;;;7.60;3.65;;;;;;;22.53;44.21;101730.38;5011266;28;20056;-68
2023/06/08 01:06:00;;;;;;;6.65;3.78;;;;;;;22.53;44.39;101728.56;5020262;28;20061;-68
2023/06/08 01:08:40;;;;;;;7.55;3.78;;;;;;;22.52;43.87;101729.53;5014878;28;20110;-68
2023/06/08 01:11:36;;;;;;;7.55;3.63;;;;;;;22.46;44.00;101722.94;5014826;28;20029;-66
2023/06/08 01:14:24;;;;;;;8.02;3.80;;;;;;;22.50;43.87;101734.13;5014810;28;20085;-66
2023/06/08 01:16:54;;;;;;;6.82;3.78;;;;;;;22.52;44.24;101734.84;5014564;28;20033;-67
2023/06/08 01:19:36;;;;;;;8.88;3.78;;;;;;;22.49;44.13;101732.44;5021426;28;20520;-67
2023/06/08 01:22:20;;;;;;;7.07;3.70;;;;;;;22.51;44.09;101735.81;5014354;28;20029;-67
2023/06/08 01:24:49;;;;;;;6.15;3.80;;;;;;;22.51;43.76;101729.66;5014534;28;20075;-69
2023/06/08 01:27:16;;;;;;;8.65;3.80;;;;;;;22.49;44.23;101721.81;5014316;28;20538;-66
2023/06/08 01:29:44;;;;;;;7.85;3.88;;;;;;;22.48;44.14;101720.16;5014019;28;20179;-66
2023/06/08 01:32:10;;;;;;;8.70;3.80;;;;;;;22.49;44.01;101718.34;5014545;28;20091;-68
2023/06/08 01:34:35;;;;;;;8.13;3.88;;;;;;;22.50;43.87;101722.69;5014123;28;20399;-67
2023/06/08 01:37:08;;;;;;;6.88;3.63;;;;;;;22.48;44.14;101725.47;5014357;28;20030;-67
2023/06/08 01:39:48;;;;;;;7.13;4.13;;;;;;;22.49;44.10;101729.78;5029212;28;20040;-69
2023/06/08 01:42:19;;;;;;;7.03;3.67;;;;;;;22.47;44.22;101726.44;5014190;28;20527;-69
2023/06/08 01:44:52;;;;;;;7.35;3.85;;;;;;;22.48;44.04;101724.59;5014419;28;20033;-67
2023/06/08 01:47:18;;;;;;;7.28;3.85;;;;;;;22.49;44.11;101724.47;5013949;28;20068;-68
2023/06/08 01:49:45;;;;;;;7.35;4.00;;;;;;;22.46;43.96;101719.44;5013787;28;20030;-67
2023/06/08 01:52:10;;;;;;;7.00;4.13;;;;;;;22.46;44.00;101712.31;5014323;28;20076;-69
2023/06/08 01:54:36;;;;;;;7.78;4.07;;;;;;;22.47;44.06;101710.50;5013456;28;20060;-67
2023/06/08 01:57:03;;;;;;;8.65;3.72;;;;;;;22.46;43.60;101709.66;5013708;28;20045;-66
2023/06/08 01:59:28;;;;;;;7.90;3.95;;;;;;;22.49;43.69;101705.06;5014306;28;20029;-67
2023/06/08 02:01:53;;;;;;;6.23;3.60;;;;;;;22.48;43.84;101713.97;5014155;28;20036;-67
2023/06/08 02:04:19;;;;;;;5.90;3.55;;;;;;;22.48;43.81;101711.31;5014254;28;20744;-69
2023/06/08 02:06:44;;;;;;;9.55;4.20;;;;;;;22.48;44.09;101711.31;5013861;28;20079;-68
2023/06/08 02:09:10;;;;;;;8.23;3.73;;;;;;;22.45;43.82;101715.94;5013835;28;20057;-67
2023/06/08 02:11:35;;;;;;;6.03;3.75;;;;;;;22.45;43.65;101712.44;5013929;28;20611;-67
2023/06/08 02:14:01;;;;;;;7.20;4.03;;;;;;;22.46;43.58;101712.31;5013338;28;20123;-67
2023/06/08 02:16:26;;;;;;;6.72;3.78;;;;;;;22.45;43.79;101707.13;5012038;28;20049;-67
2023/06/08 02:18:52;;;;;;;7.45;3.88;;;;;;;22.47;43.66;101713.16;5013472;28;20041;-68
2023/06/08 02:21:17;;;;;;;6.85;3.50;;;;;;;22.44;43.50;101711.59;5013427;28;20120;-69
2023/06/08 02:23:43;;;;;;;7.68;3.90;;;;;;;22.46;43.67;101716.78;5012951;28;20092;-67
2023/06/08 02:26:08;;;;;;;6.68;4.05;;;;;;;22.46;43.75;101714.13;5013341;28;20455;-69
2023/06/08 02:28:34;;;;;;;6.80;3.95;;;;;;;22.44;43.63;101714.25;5013669;28;20465;-68
2023/06/08 02:31:00;;;;;;;7.03;4.10;;;;;;;22.45;43.82;101715.94;5012781;28;20041;-70
2023/06/08 02:33:27;;;;;;;8.50;4.28;;;;;;;22.45;44.04;101710.63;5013213;28;20033;-67
2023/06/08 02:35:52;;;;;;;6.78;4.13;;;;;;;22.44;43.91;101714.25;5013092;28;20062;-67
2023/06/08 02:38:18;;;;;;;6.63;3.85;;;;;;;22.45;43.85;101712.44;5011562;28;20065;-67
2023/06/08 02:40:43;;;;;;;6.50;4.20;;;;;;;22.44;43.75;101714.25;5013473;28;20496;-68
2023/06/08 02:43:08;;;;;;;5.85;3.90;;;;;;;22.45;43.79;101715.94;5012922;28;20295;-67
2023/06/08 02:45:34;;;;;;;6.25;4.10;;;;;;;22.44;43.60;101719.56;5012669;28;20393;-69
2023/06/08 02:48:00;;;;;;;7.63;3.95;;;;;;;22.42;43.74;101716.19;5011498;28;20026;-69
2023/06/08 02:50:25;;;;;;;8.48;3.72;;;;;;;22.44;43.74;101714.25;5012979;28;20103;-69
2023/06/08 02:52:50;;;;;;;6.93;4.03;;;;;;;22.44;43.64;101710.75;5012602;28;20128;-67
2023/06/08 02:55:16;;;;;;;8.30;3.92;;;;;;;22.43;43.48;101717.91;5013328;28;20325;-68
2023/06/08 02:57:41;;;;;;;6.22;4.00;;;;;;;22.44;43.59;101708.09;5012319;28;20037;-68
2023/06/08 03:00:07;;;;;;;7.15;4.03;;;;;;;22.44;43.51;101713.41;5012278;28;20467;-67
2023/06/08 03:02:33;;;;;;;8.52;4.30;;;;;;;22.42;43.58;101708.22;5012907;28;20041;-68
2023/06/08 03:05:03;;;;;;;8.02;3.88;;;;;;;22.42;43.33;101710.06;5012821;28;20398;-67
2023/06/08 03:07:29;;;;;;;6.80;4.03;;;;;;;22.40;43.45;101710.19;5011921;28;20040;-66
2023/06/08 03:09:54;;;;;;;9.73;4.30;;;;;;;22.43;43.58;101714.38;5012831;28;20038;-66
2023/06/08 03:12:20;;;;;;;8.57;4.03;;;;;;;22.41;43.42;101709.22;5012214;28;20112;-68
2023/06/08 03:14:48;;;;;;;8.00;4.30;;;;;;;22.41;43.78;101700.41;5012314;28;20057;-68
2023/06/08 03:17:16;;;;;;;9.25;4.25;;;;;;;22.40;43.44;101698.72;5011176;28;20121;-67
2023/06/08 03:19:41;;;;;;;7.65;4.00;;;;;;;22.42;43.22;101704.75;5012597;28;20034;-66
2023/06/08 03:22:07;;;;;;;6.88;4.03;;;;;;;22.39;43.53;101697.03;5011560;28;20030;-67
2023/06/08 03:24:32;;;;;;;8.20;4.10;;;;;;;22.39;43.76;101703.19;5011359;28;20065;-67
2023/06/08 03:26:58;;;;;;;7.13;3.92;;;;;;;22.39;43.56;101711.16;5011446;28;20041;-68
2023/06/08 03:29:24;;;;;;;5.60;3.47;;;;;;;22.39;43.22;101710.31;5012061;28;20029;-68
2023/06/08 03:31:50;;;;;;;8.05;4.30;;;;;;;22.39;43.33;101708.50;5012727;28;20037;-67
2023/06/08 03:34:16;;;;;;;7.40;4.00;;;;;;;22.39;43.37;101712.97;5012416;28;20048;-69
2023/06/08 03:36:43;;;;;;;8.27;4.03;;;;;;;22.37;43.25;101702.47;5011861;28;20044;-68
2023/06/08 03:39:09;;;;;;;8.20;3.80;;;;;;;22.39;43.55;101708.50;5012055;28;20040;-67
2023/06/08 03:41:34;;;;;;;7.10;3.63;;;;;;;22.39;43.09;101712.97;5011845;28;20042;-67
2023/06/08 03:44:00;;;;;;;8.30;3.90;;;;;;;22.36;43.51;101706.09;5012041;28;20040;-67
2023/06/08 03:46:25;;;;;;;6.95;4.18;;;;;;;22.39;43.49;101710.31;5012009;28;20482;-66
2023/06/08 03:48:50;;;;;;;6.68;3.90;;;;;;;22.37;43.15;101707.78;5012165;28;20468;-67
2023/06/08 03:51:18;;;;;;;8.85;4.28;;;;;;;22.36;43.26;101705.28;5011431;28;20397;-67
2023/06/08 03:53:43;;;;;;;6.70;3.78;;;;;;;22.38;43.08;101706.84;5011782;28;20385;-67
2023/06/08 03:56:09;;;;;;;7.43;4.07;;;;;;;22.36;43.19;101703.44;5011920;28;20025;-68
2023/06/08 03:58:34;;;;;;;8.05;4.38;;;;;;;22.36;43.32;101702.63;5011437;28;20262;-67
2023/06/08 04:00:59;;;;;;;6.80;4.07;;;;;;;22.36;43.04;101700.78;5011820;28;20041;-68
2023/06/08 04:03:25;;;;;;;6.55;3.60;;;;;;;22.36;43.44;101699.97;5011775;28;20418;-67
2023/06/08 04:05:51;;;;;;;7.78;4.25;;;;;;;22.37;43.32;101702.47;5011515;28;20029;-66
2023/06/08 04:08:17;;;;;;;8.10;4.10;;;;;;;22.35;43.24;101695.59;5011203;28;20390;-67
2023/06/08 04:10:43;;;;;;;8.70;4.05;;;;;;;22.36;43.30;101710.56;5011854;28;20033;-68
2023/06/08 04:13:08;;;;;;;8.73;4.35;;;;;;;22.36;43.40;101697.31;5011579;28;20492;-68
2023/06/08 04:15:33;;;;;;;10.40;4.55;;;;;;;22.35;43.09;101707.09;5011302;28;20054;-67
2023/06/08 04:18:01;;;;;;;7.38;4.03;;;;;;;22.34;42.94;101708.06;5010674;28;20030;-67
2023/06/08 04:20:27;;;;;;;7.13;3.90;;;;;;;22.34;43.10;101702.75;5011286;28;20026;-68
2023/06/08 04:22:52;;;;;;;10.40;4.10;;;;;;;22.33;43.04;101701.06;5011432;28;21104;-68
2023/06/08 04:25:17;;;;;;;9.47;4.30;;;;;;;22.32;43.19;101696.72;5011344;28;20552;-67
2023/06/08 04:27:43;;;;;;;7.78;4.18;;;;;;;22.37;43.12;101702.47;5011553;28;20263;-67
2023/06/08 04:30:08;;;;;;;7.93;4.25;;;;;;;22.33;43.15;101702.88;5011302;28;20113;-67
2023/06/08 04:32:34;;;;;;;8.13;4.50;;;;;;;22.33;43.07;101692.25;5011279;28;20065;-66
2023/06/08 04:35:00;;;;;;;7.60;3.60;;;;;;;22.35;43.32;101704.44;5011170;28;20430;-68
2023/06/08 04:37:26;;;;;;;8.20;3.90;;;;;;;22.32;43.04;101691.41;5011022;28;20175;-68
2023/06/08 04:39:51;;;;;;;7.22;4.47;;;;;;;22.32;43.24;101694.06;5010711;28;20034;-67
2023/06/08 04:42:17;;;;;;;8.82;4.20;;;;;;;22.33;43.35;101697.56;5011495;28;20851;-68
2023/06/08 04:44:43;;;;;;;6.97;3.85;;;;;;;22.34;42.93;101696.59;5011936;28;20037;-69
2023/06/08 04:47:08;;;;;;;9.40;4.22;;;;;;;22.33;43.12;101693.09;5012082;28;20033;-68
2023/06/08 04:49:34;;;;;;;6.88;3.85;;;;;;;22.32;43.48;101703.84;5010962;28;20814;-68
2023/06/08 04:52:00;;;;;;;8.10;4.20;;;;;;;22.33;43.18;101692.25;5010801;28;20026;-67
2023/06/08 04:54:29;;;;;;;7.15;3.90;;;;;;;22.28;42.95;101692.63;5010291;28;20041;-67
2023/06/08 04:56:58;;;;;;;7.63;4.30;;;;;;;22.31;43.42;101695.03;5010095;28;20040;-66
2023/06/08 04:59:25;;;;;;;6.72;3.72;;;;;;;22.32;43.02;101695.88;5010106;28;20539;-68
2023/06/08 05:01:50;;;;;;;8.88;4.05;;;;;;;22.33;43.15;101708.19;5010897;28;20060;-67
2023/06/08 05:04:16;;;;;;;7.45;3.97;;;;;;;22.32;43.24;101693.22;5009583;28;20034;-67
2023/06/08 05:06:41;;;;;;;7.40;3.72;;;;;;;22.31;43.42;101695.03;5010538;28;20110;-66
2023/06/08 05:09:06;;;;;;;9.47;4.27;;;;;;;22.31;43.27;101696.88;5011076;28;20076;-68
2023/06/08 05:11:31;;;;;;;8.00;4.25;;;;;;;22.31;42.88;101692.38;5010052;28;20268;-68
2023/06/08 05:13:57;;;;;;;7.20;3.90;;;;;;;22.31;42.88;101695.03;5011305;28;20029;-67
2023/06/08 05:16:22;;;;;;;6.20;3.75;;;;;;;22.32;42.99;101694.06;5010831;28;20053;-68
2023/06/08 05:18:47;;;;;;;7.37;3.93;;;;;;;22.31;42.86;101695.03;5010100;28;20037;-68
2023/06/08 05:21:13;;;;;;;8.73;3.92;;;;;;;22.29;43.06;101686.34;5009166;28;20269;-67
2023/06/08 05:23:39;;;;;;;6.90;3.97;;;;;;;22.28;42.94;101688.13;5011664;28;20029;-68
2023/06/08 05:26:04;;;;;;;7.63;4.10;;;;;;;22.31;43.20;101694.22;5011176;28;20627;-67
2023/06/08 05:28:30;;;;;;;8.23;4.20;;;;;;;22.26;42.79;101691.91;5011370;28;20046;-68
2023/06/08 05:30:55;;;;;;;7.43;4.00;;;;;;;22.28;42.95;101693.44;5011473;28;20049;-69
2023/06/08 05:33:20;;;;;;;7.85;3.90;;;;;;;22.26;43.40;101684.78;5010052;28;20040;-67
2023/06/08 05:35:45;;;;;;;7.72;3.85;;;;;;;22.28;43.09;101690.78;5011043;28;20442;-66
2023/06/08 05:38:11;;;;;;;9.48;4.00;;;;;;;22.26;42.90;101682.13;5010076;28;20038;-68
2023/06/08 05:40:36;;;;;;;6.45;3.80;;;;;;;22.27;43.23;101686.47;5010236;28;20057;-67
2023/06/08 05:43:01;;;;;;;8.25;3.80;;;;;;;22.27;43.28;101682.97;5010384;28;20030;-69
2023/06/08 05:45:27;;;;;;;7.47;4.20;;;;;;;22.26;43.31;101684.78;5009959;28;20038;-69
2023/06/08 05:47:52;;;;;;;7.03;3.75;;;;;;;22.26;43.21;101686.59;5009397;28;20263;-69
2023/06/08 05:50:18;;;;;;;7.72;3.80;;;;;;;22.21;43.24;101672.88;5010567;28;20026;-71
2023/06/08 05:52:44;;;;;;;6.88;3.78;;;;;;;22.25;43.23;101677.78;5012378;28;20579;-68
2023/06/08 05:55:10;;;;;;;7.75;3.83;;;;;;;22.25;43.28;101680.44;5013886;28;20459;-69
2023/06/08 05:57:36;;;;;;;8.43;4.07;;;;;;;22.27;43.08;101680.31;5013458;28;20030;-68
2023/06/08 06:00:06;;;;;;;6.05;3.80;;;;;;;22.27;43.00;101675.84;5014361;28;20033;-67
2023/06/08 06:02:31;;;;;;;7.28;3.92;;;;;;;22.28;43.24;101679.34;5013979;28;20033;-67
2023/06/08 06:04:56;;;;;;;6.90;3.85;;;;;;;22.24;43.30;101676.13;5013810;28;20087;-66
2023/06/08 06:07:21;;;;;;;8.93;4.35;;;;;;;22.24;43.49;101683.25;5014772;28;20045;-67
2023/06/08 06:09:47;;;;;;;7.07;3.83;;;;;;;22.25;43.89;101680.44;5013444;28;20083;-70
2023/06/08 06:12:13;;;;;;;9.20;4.53;;;;;;;22.27;43.50;101675.00;5012927;28;20418;-67
2023/06/08 06:14:40;;;;;;;7.63;3.78;;;;;;;22.26;43.89;101670.69;5012651;28;20287;-68
2023/06/08 06:17:06;;;;;;;6.78;4.00;;;;;;;22.26;43.69;101670.69;5013054;28;20048;-67
2023/06/08 06:19:36;;;;;;;7.47;4.00;;;;;;;22.27;43.67;101677.66;5013925;28;20061;-68
2023/06/08 06:22:05;;;;;;;8.80;4.40;;;;;;;22.28;43.50;101663.41;5012764;28;20040;-67
2023/06/08 06:24:30;;;;;;;6.85;3.63;;;;;;;22.31;43.84;101668.50;5013473;28;20094;-68
2023/06/08 06:26:55;;;;;;;8.47;3.93;;;;;;;22.32;43.87;101675.50;5012393;28;20037;-66
2023/06/08 06:29:20;;;;;;;7.40;3.93;;;;;;;22.32;43.93;101680.81;5012970;28;20263;-66
2023/06/08 06:31:46;;;;;;;6.70;3.78;;;;;;;22.31;43.73;101679.09;5013198;28;20271;-67
2023/06/08 06:34:11;;;;;;;7.33;3.70;;;;;;;22.27;43.96;101675.84;5013832;28;20030;-66
2023/06/08 06:36:36;;;;;;;7.77;4.10;;;;;;;22.27;43.80;101677.66;5012640;28;20340;-67
2023/06/08 06:39:02;;;;;;;7.43;4.35;;;;;;;22.31;43.97;101686.25;5013102;28;20267;-66
2023/06/08 06:41:27;;;;;;;7.55;3.97;;;;;;;22.30;44.02;101682.72;5013174;28;20470;-69
2023/06/08 06:43:53;;;;;;;8.18;4.30;;;;;;;22.29;43.80;101681.03;5013354;28;20037;-67
2023/06/08 06:46:20;;;;;;;8.53;4.23;;;;;;;22.31;43.86;101691.56;5012734;28;20061;-68
2023/06/08 06:48:45;;;;;;;7.35;4.30;;;;;;;22.31;43.65;101689.72;5013758;28;20275;-67
2023/06/08 06:51:11;;;;;;;7.53;4.30;;;;;;;22.26;44.09;101691.91;5012683;28;20030;-66
2023/06/08 06:53:36;;;;;;;8.13;4.40;;;;;;;22.27;44.12;101683.81;5012824;28;20033;-68
2023/06/08 06:56:02;;;;;;;9.88;4.22;;;;;;;22.24;44.23;101689.38;5012478;28;20122;-67
2023/06/08 06:58:27;;;;;;;8.23;4.00;;;;;;;22.25;44.53;101692.88;5012437;28;20029;-67
2023/06/08 07:00:55;;;;;;;8.23;4.60;;;;;;;22.25;44.48;101687.56;5010812;28;20036;-69
2023/06/08 07:03:21;;;;;;;8.18;4.13;;;;;;;22.25;45.10;101693.72;5012246;28;20034;-68
2023/06/08 07:05:47;;;;;;;7.85;4.45;;;;;;;22.26;44.83;101691.91;5012708;28;20678;-68
2023/06/08 07:08:12;;;;;;;7.90;3.85;;;;;;;22.24;45.13;101691.22;5012608;28;20029;-68
2023/06/08 07:10:38;;;;;;;7.57;4.18;;;;;;;22.26;44.98;101687.44;5003939;28;20057;-70
2023/06/08 07:13:03;;;;;;;11.00;5.57;;;;;;;22.24;44.25;101686.72;5012455;28;20152;-68
2023/06/08 07:15:28;;;;;;;11.63;6.70;;;;;;;22.32;43.88;101695.88;5012727;28;20402;-69
2023/06/08 07:17:54;;;;;;;12.50;7.43;;;;;;;22.30;43.40;101693.34;5011907;28;20080;-69
2023/06/08 07:20:19;;;;;;;14.77;7.85;;;;;;;22.30;43.15;101696.00;5012215;28;20029;-68
2023/06/08 07:22:44;;;;;;;14.05;7.38;;;;;;;22.28;43.16;101695.28;5012621;28;20483;-69
2023/06/08 07:25:10;;;;;;;15.07;7.28;;;;;;;22.24;43.29;101694.69;5012435;28;20041;-70
2023/06/08 07:27:35;;;;;;;16.10;8.35;;;;;;;22.22;43.36;101691.34;5011625;28;20037;-67
2023/06/08 07:30:00;;;;;;;12.65;8.15;;;;;;;22.21;43.36;101696.78;5012138;28;20030;-67
2023/06/08 07:32:26;;;;;;;11.85;8.35;;;;;;;22.17;43.48;101690.88;5012609;28;20033;-67
2023/06/08 07:34:52;;;;;;;13.63;8.35;;;;;;;22.10;43.45;101679.94;5012598;28;20398;-66
2023/06/08 07:37:17;;;;;;;13.23;8.23;;;;;;;22.09;43.63;101680.91;5012170;28;20033;-68
2023/06/08 07:39:42;;;;;;;16.52;9.38;;;;;;;22.08;43.79;101683.72;5012149;28;20045;-68
2023/06/08 07:42:08;;;;;;;12.37;8.40;;;;;;;22.03;43.86;101680.59;5011947;28;20041;-66
2023/06/08 07:44:33;;;;;;;12.80;7.45;;;;;;;22.01;43.84;101680.72;5012243;28;20958;-65
2023/06/08 07:47:00;;;;;;;15.27;9.27;;;;;;;22.01;44.35;101680.72;5012050;28;20033;-66
2023/06/08 07:49:27;;;;;;;12.80;8.48;;;;;;;21.98;44.28;101678.31;5011752;28;20266;-67
2023/06/08 07:51:53;;;;;;;14.73;8.73;;;;;;;21.93;44.29;101669.91;5011704;28;20398;-68
2023/06/08 07:54:19;;;;;;;13.25;7.78;;;;;;;21.94;44.24;101676.91;5011850;28;20052;-66
2023/06/08 07:56:47;;;;;;;13.32;8.13;;;;;;;21.96;44.50;101676.78;5011091;28;20038;-63
2023/06/08 07:59:13;;;;;;;18.23;8.80;;;;;;;21.94;44.60;101671.63;5011717;28;20029;-67
2023/06/08 08:01:38;;;;;;;16.88;8.80;;;;;;;21.96;44.38;101685.59;5011416;28;20048;-67
2023/06/08 08:04:03;;;;;;;14.03;8.23;;;;;;;21.95;44.63;101672.44;5012276;28;21107;-67
2023/06/08 08:06:29;;;;;;;13.15;7.65;;;;;;;21.95;44.77;101675.94;5010537;28;20275;-68
2023/06/08 08:08:54;;;;;;;13.88;7.38;;;;;;;21.91;44.83;101663.91;5011418;28;20037;-65
2023/06/08 08:11:20;;;;;;;12.10;6.60;;;;;;;21.95;44.83;101678.59;5011505;28;20029;-68
2023/06/08 08:13:45;;;;;;;11.80;6.40;;;;;;;21.95;44.73;101672.44;5010825;28;20478;-67
2023/06/08 08:16:10;;;;;;;9.73;5.40;;;;;;;21.91;45.19;101672.69;5010768;28;20417;-67
2023/06/08 08:18:36;;;;;;;10.45;5.32;;;;;;;21.91;45.05;101674.53;5011842;28;20030;-67
2023/06/08 08:21:01;;;;;;;10.57;5.05;;;;;;;22.03;45.12;101673.50;5008489;28;20481;-63
2023/06/08 08:23:26;;;;;;;12.88;5.97;;;;;;;22.08;45.13;101665.97;5011284;28;20039;-63
2023/06/08 08:25:52;;;;;;;10.30;4.80;;;;;;;22.14;45.15;101669.06;5010158;28;20383;-67
2023/06/08 08:28:17;;;;;;;12.20;5.18;;;;;;;22.18;45.05;101675.81;5010946;28;20068;-65
2023/06/08 08:30:42;;;;;;;10.73;4.88;;;;;;;22.20;45.03;101664.06;5009968;28;20034;-66
2023/06/08 08:33:07;;;;;;;10.20;4.80;;;;;;;22.23;45.38;101669.13;5010462;28;20038;-66
2023/06/08 08:35:34;;;;;;;9.47;4.77;;;;;;;22.27;44.89;101669.69;5010504;28;20341;-67
2023/06/08 08:37:59;;;;;;;10.90;4.97;;;;;;;22.28;45.08;101668.72;5010199;28;20293;-65
2023/06/08 08:40:25;;;;;;;8.13;4.50;;;;;;;22.34;44.98;101667.41;5027288;28;20025;-66
2023/06/08 08:43:06;;;;;;;8.73;4.68;;;;;;;22.33;44.72;101671.84;5009913;28;20034;-66
2023/06/08 08:45:34;;;;;;;7.88;3.97;;;;;;;22.37;44.73;101669.78;5009492;28;20061;-67
2023/06/08 08:48:01;;;;;;;10.00;4.55;;;;;;;22.39;44.78;101667.81;5009960;28;20435;-64
2023/06/08 08:50:28;;;;;;;8.82;4.25;;;;;;;22.41;44.58;101664.06;5010404;28;20092;-64
2023/06/08 08:52:56;;;;;;;8.75;4.32;;;;;;;22.44;44.81;101661.13;5010101;28;20037;-66
2023/06/08 08:55:27;;;;;;;9.18;4.55;;;;;;;22.45;45.09;101660.16;5009842;28;20034;-65
2023/06/08 08:57:56;;;;;;;7.82;4.50;;;;;;;22.50;44.61;101659.75;5009956;28;20537;-66
2023/06/08 09:00:21;;;;;;;7.53;4.40;;;;;;;22.49;44.76;101659.91;5009491;28;20021;-66
2023/06/08 09:02:49;;;;;;;9.63;4.38;;;;;;;22.55;44.56;101667.34;5010060;28;20095;-67
2023/06/08 09:05:15;;;;;;;8.40;4.35;;;;;;;22.54;44.95;101663.84;5010635;28;20113;-65
2023/06/08 09:07:40;;;;;;;7.57;4.55;;;;;;;22.56;44.88;101661.06;5010142;28;20041;-67
2023/06/08 09:10:35;;;;;;;8.77;4.65;;;;;;;22.55;45.02;101656.72;5010491;28;20067;-68
2023/06/08 09:13:01;;;;;;;7.57;3.92;;;;;;;22.57;44.97;101660.06;5007782;28;20045;-65
2023/06/08 09:15:33;;;;;;;7.25;4.18;;;;;;;22.59;44.84;101656.31;5009903;28;20167;-70
2023/06/08 09:18:04;;;;;;;7.50;4.00;;;;;;;22.61;45.08;101656.19;5009769;28;20033;-66
2023/06/08 09:20:34;;;;;;;9.38;4.28;;;;;;;22.60;45.17;101652.66;5009520;28;20393;-67
2023/06/08 09:23:15;;;;;;;7.38;4.20;;;;;;;22.59;45.26;101658.97;5009637;28;20029;-66
2023/06/08 09:25:41;;;;;;;9.05;4.22;;;;;;;22.64;44.92;101651.44;5010413;28;20061;-65
2023/06/08 09:28:25;;;;;;;8.38;4.10;;;;;;;22.63;45.08;101647.06;5013854;28;20092;-65
2023/06/08 09:30:51;;;;;;;8.13;4.28;;;;;;;22.67;45.10;101646.81;5013750;28;20025;-66
2023/06/08 09:33:24;;;;;;;6.85;3.90;;;;;;;22.66;45.02;101653.13;5013637;28;20034;-64
2023/06/08 09:36:15;;;;;;;11.30;4.22;;;;;;;22.70;44.95;101649.19;5013312;28;20029;-65
2023/06/08 09:38:42;;;;;;;7.15;4.00;;;;;;;22.70;44.98;101643.88;5013498;28;20125;-66
2023/06/08 09:41:21;;;;;;;7.13;3.95;;;;;;;22.70;45.00;101649.19;5012842;28;20041;-65
2023/06/08 09:43:48;;;;;;;10.02;4.35;;;;;;;22.71;44.88;101643.75;5013748;28;20040;-65
2023/06/08 09:46:32;;;;;;;7.78;4.15;;;;;;;22.73;45.12;101646.28;5013626;28;20045;-65
2023/06/08 09:48:57;;;;;;;9.02;4.28;;;;;;;22.75;44.86;101642.50;5013402;28;20030;-66
2023/06/08 09:51:23;;;;;;;7.75;4.28;;;;;;;22.75;44.65;101637.19;5013422;28;20048;-66
2023/06/08 09:53:57;;;;;;;7.32;3.70;;;;;;;22.77;44.99;101635.22;5012653;28;20034;-66
2023/06/08 09:56:25;;;;;;;6.35;3.67;;;;;;;22.77;45.03;101634.41;5013138;28;20033;-65
2023/06/08 09:58:53;;;;;;;5.80;3.85;;;;;;;22.75;45.04;101631.88;5013667;28;20033;-66
2023/06/08 10:01:41;;;;;;;9.43;4.30;;;;;;;22.79;45.09;101635.09;5012020;28;20034;-68
2023/06/08 10:04:21;;;;;;;8.25;3.70;;;;;;;22.77;45.43;101624.59;5011989;28;20081;-65
2023/06/08 10:06:51;;;;;;;8.40;3.95;;;;;;;22.83;44.86;101633.88;5012930;28;20041;-66
2023/06/08 10:09:19;;;;;;;6.07;3.75;;;;;;;22.82;44.76;101624.19;5013129;28;20044;-66
2023/06/08 10:11:45;;;;;;;6.07;3.83;;;;;;;22.82;44.70;101622.38;5012940;28;20077;-67
2023/06/08 10:14:12;;;;;;;8.05;4.25;;;;;;;22.86;45.12;101624.75;5012649;28;20083;-67
2023/06/08 10:16:39;;;;;;;6.93;4.07;;;;;;;22.87;44.79;101623.78;5012564;28;20124;-68
2023/06/08 10:19:04;;;;;;;6.30;3.88;;;;;;;22.88;44.78;101628.97;5013111;28;20068;-67
2023/06/08 10:21:30;;;;;;;10.25;4.32;;;;;;;22.87;44.97;101611.34;5012871;28;20030;-68
2023/06/08 10:23:57;;;;;;;5.85;3.88;;;;;;;22.88;45.08;101617.50;5012575;28;20523;-65
2023/06/08 10:26:23;;;;;;;6.60;3.75;;;;;;;22.86;44.85;101617.66;5012923;28;20036;-66
2023/06/08 10:29:10;;;;;;;8.52;4.10;;;;;;;22.87;45.26;101619.31;5012953;28;20026;-65
2023/06/08 10:31:39;;;;;;;8.45;4.30;;;;;;;22.90;44.86;101615.53;5010678;28;20029;-66
2023/06/08 10:34:08;;;;;;;5.78;3.72;;;;;;;22.92;45.02;101613.56;5012134;28;20029;-65
2023/06/08 10:36:39;;;;;;;6.35;3.70;;;;;;;22.91;44.97;101604.78;5011926;28;20256;-69
2023/06/08 10:39:16;;;;;;;6.13;3.55;;;;;;;22.94;44.95;101609.81;5011648;28;20033;-67
2023/06/08 10:41:57;;;;;;;5.95;3.53;;;;;;;22.93;45.00;101605.47;5014112;28;20038;-68
2023/06/08 10:44:31;;;;;;;6.45;3.70;;;;;;;22.93;44.97;101605.47;5011105;28;20029;-68
2023/06/08 10:47:06;;;;;;;5.75;3.65;;;;;;;22.89;44.93;101589.94;5011757;28;20046;-68
2023/06/08 10:49:33;;;;;;;7.45;4.00;;;;;;;22.86;45.23;101585.75;5012756;28;20033;-69
2023/06/08 10:52:00;;;;;;;7.10;3.60;;;;;;;22.83;45.22;101586.03;5012556;28;20471;-68
2023/06/08 10:54:26;;;;;;;6.55;3.85;;;;;;;22.85;45.51;101593.88;5012525;28;20036;-69
2023/06/08 10:56:54;;;;;;;6.65;4.10;;;;;;;22.83;45.77;101592.19;5010270;28;20041;-68
2023/06/08 10:59:35;;;;;;;7.40;3.83;;;;;;;22.90;44.96;101584.47;5011071;28;20438;-66
2023/06/08 11:02:02;;;;;;;6.45;3.90;;;;;;;22.98;45.21;101587.28;5012147;28;20076;-68
2023/06/08 11:04:31;;;;;;;7.15;3.70;;;;;;;23.00;44.63;101587.16;5011362;28;20030;-69
2023/06/08 11:07:03;;;;;;;7.72;3.42;;;;;;;22.99;44.63;101575.69;5011970;28;20112;-68
2023/06/08 11:09:33;;;;;;;5.88;3.40;;;;;;;22.98;44.72;101576.66;5012682;28;20116;-68
2023/06/08 11:12:01;;;;;;;10.57;3.85;;;;;;;23.01;44.72;101576.38;5012558;28;20421;-67
2023/06/08 11:14:26;;;;;;;6.55;3.35;;;;;;;23.00;44.80;101576.50;5011529;28;20030;-67
2023/06/08 11:16:55;;;;;;;6.05;3.53;;;;;;;23.01;44.40;101580.84;5010190;28;20036;-68
2023/06/08 11:19:22;;;;;;;6.20;3.72;;;;;;;22.99;44.57;101574.84;5011228;28;20036;-70
2023/06/08 11:21:50;;;;;;;5.85;3.80;;;;;;;23.00;44.74;101569.41;5011860;28;20064;-69
2023/06/08 11:24:16;;;;;;;8.48;3.90;;;;;;;22.99;44.86;101572.19;5011768;28;20033;-71
2023/06/08 11:26:42;;;;;;;5.88;3.63;;;;;;;23.03;44.78;101576.22;5011735;28;20035;-69